sensor_id;sensor_type;location;lat;lon;timestamp;pressure;altitude;pressure_sealevel;temperature;humidity
41686;BME280;27370;42.764;23.432;2023-01-26T00:01:21;96102.00;;;-1.16;100.00
41686;BME280;27370;42.764;23.432;2023-01-26T00:03:47;96099.13;;;-1.02;100.00
41686;BME280;27370;42.764;23.432;2023-01-26T00:06:15;96095.63;;;-1.24;100.00
41686;BME280;27370;42.764;23.432;2023-01-26T00:08:43;96096.47;;;-1.02;100.00
41686;BME280;27370;42.764;23.432;2023-01-26T00:11:10;96092.25;;;-1.03;100.00
41686;BME280;27370;42.764;23.432;2023-01-26T00:13:37;96090.03;;;-1.39;100.00
41686;BME280;27370;42.764;23.432;2023-01-26T00:16:03;96110.19;;;-1.38;100.00
41686;BME280;27370;42.764;23.432;2023-01-26T00:18:29;96108.47;;;-1.34;100.00
41686;BME280;27370;42.764;23.432;2023-01-26T00:20:59;96100.50;;;-1.43;100.00
41686;BME280;27370;42.764;23.432;2023-01-26T00:23:26;96106.00;;;-1.48;100.00
41686;BME280;27370;42.764;23.432;2023-01-26T00:25:53;96101.94;;;-1.45;100.00
41686;BME280;27370;42.764;23.432;2023-01-26T00:28:18;96093.69;;;-1.52;100.00
41686;BME280;27370;42.764;23.432;2023-01-26T00:30:44;96099.63;;;-1.64;100.00
41686;BME280;27370;42.764;23.432;2023-01-26T00:33:09;96115.38;;;-1.50;100.00
41686;BME280;27370;42.764;23.432;2023-01-26T00:35:35;96109.47;;;-1.56;100.00
41686;BME280;27370;42.764;23.432;2023-01-26T00:38:01;96088.06;;;-1.51;100.00
41686;BME280;27370;42.764;23.432;2023-01-26T00:40:27;96084.72;;;-1.39;100.00
41686;BME280;27370;42.764;23.432;2023-01-26T00:42:52;96080.97;;;-1.30;100.00
41686;BME280;27370;42.764;23.432;2023-01-26T00:45:20;96065.34;;;-1.31;100.00
41686;BME280;27370;42.764;23.432;2023-01-26T00:47:45;96050.19;;;-1.31;100.00
41686;BME280;27370;42.764;23.432;2023-01-26T00:50:11;96061.34;;;-1.16;100.00
41686;BME280;27370;42.764;23.432;2023-01-26T00:52:37;96043.94;;;-1.35;100.00
41686;BME280;27370;42.764;23.432;2023-01-26T00:55:02;96053.63;;;-1.39;100.00
41686;BME280;27370;42.764;23.432;2023-01-26T00:57:28;96058.06;;;-1.13;100.00
41686;BME280;27370;42.764;23.432;2023-01-26T00:59:55;96065.47;;;-1.28;100.00
41686;BME280;27370;42.764;23.432;2023-01-26T01:02:23;96061.13;;;-1.32;100.00
41686;BME280;27370;42.764;23.432;2023-01-26T01:04:48;96057.75;;;-1.50;100.00
41686;BME280;27370;42.764;23.432;2023-01-26T01:07:14;96056.59;;;-1.40;100.00
41686;BME280;27370;42.764;23.432;2023-01-26T01:09:39;96045.53;;;-1.42;100.00
41686;BME280;27370;42.764;23.432;2023-01-26T01:12:05;96043.66;;;-1.42;100.00
41686;BME280;27370;42.764;23.432;2023-01-26T01:14:31;96039.25;;;-1.38;100.00
41686;BME280;27370;42.764;23.432;2023-01-26T01:16:57;96053.03;;;-1.44;100.00
41686;BME280;27370;42.764;23.432;2023-01-26T01:19:23;96055.09;;;-1.50;100.00
41686;BME280;27370;42.764;23.432;2023-01-26T01:21:48;96043.00;;;-1.39;100.00
41686;BME280;27370;42.764;23.432;2023-01-26T01:24:14;96057.56;;;-1.45;100.00
41686;BME280;27370;42.764;23.432;2023-01-26T01:26:39;96056.31;;;-1.47;100.00
41686;BME280;27370;42.764;23.432;2023-01-26T01:29:05;96046.34;;;-1.59;100.00
41686;BME280;27370;42.764;23.432;2023-01-26T01:31:31;96047.59;;;-1.48;100.00
41686;BME280;27370;42.764;23.432;2023-01-26T01:33:57;96050.09;;;-1.51;100.00
41686;BME280;27370;42.764;23.432;2023-01-26T01:36:22;96033.41;;;-1.23;100.00
41686;BME280;27370;42.764;23.432;2023-01-26T01:38:51;96025.63;;;-1.28;100.00
41686;BME280;27370;42.764;23.432;2023-01-26T01:41:19;96040.06;;;-1.46;100.00
41686;BME280;27370;42.764;23.432;2023-01-26T01:43:45;96041.03;;;-1.50;100.00
41686;BME280;27370;42.764;23.432;2023-01-26T01:46:34;96032.75;;;-1.49;100.00
41686;BME280;27370;42.764;23.432;2023-01-26T01:49:15;96038.25;;;-1.63;100.00
41686;BME280;27370;42.764;23.432;2023-01-26T01:52:02;96044.00;;;-1.61;100.00
41686;BME280;27370;42.764;23.432;2023-01-26T01:54:41;96028.75;;;-1.72;100.00
41686;BME280;27370;42.764;23.432;2023-01-26T01:57:10;96033.72;;;-1.62;100.00
41686;BME280;27370;42.764;23.432;2023-01-26T01:59:50;96035.28;;;-1.61;100.00
41686;BME280;27370;42.764;23.432;2023-01-26T02:02:18;96038.09;;;-1.66;100.00
41686;BME280;27370;42.764;23.432;2023-01-26T02:04:45;96015.81;;;-1.74;100.00
41686;BME280;27370;42.764;23.432;2023-01-26T02:07:11;96023.53;;;-1.51;100.00
41686;BME280;27370;42.764;23.432;2023-01-26T02:09:38;96036.34;;;-1.53;100.00
41686;BME280;27370;42.764;23.432;2023-01-26T02:12:26;96022.91;;;-1.48;100.00
41686;BME280;27370;42.764;23.432;2023-01-26T02:14:53;96008.09;;;-1.20;100.00
41686;BME280;27370;42.764;23.432;2023-01-26T02:17:20;96003.03;;;-1.42;100.00
41686;BME280;27370;42.764;23.432;2023-01-26T02:25:41;96005.00;;;-1.01;100.00
41686;BME280;27370;42.764;23.432;2023-01-26T02:28:12;95988.06;;;-1.17;100.00
41686;BME280;27370;42.764;23.432;2023-01-26T02:30:37;95991.91;;;-1.06;100.00
41686;BME280;27370;42.764;23.432;2023-01-26T02:33:03;95972.47;;;-0.98;100.00
41686;BME280;27370;42.764;23.432;2023-01-26T02:35:29;95966.72;;;-1.00;100.00
41686;BME280;27370;42.764;23.432;2023-01-26T02:37:54;95970.28;;;-0.96;100.00
41686;BME280;27370;42.764;23.432;2023-01-26T02:40:37;95958.09;;;-0.97;100.00
41686;BME280;27370;42.764;23.432;2023-01-26T02:43:04;95968.94;;;-0.81;100.00
41686;BME280;27370;42.764;23.432;2023-01-26T02:45:31;95966.16;;;-1.14;100.00
41686;BME280;27370;42.764;23.432;2023-01-26T02:47:58;95952.63;;;-1.21;100.00
41686;BME280;27370;42.764;23.432;2023-01-26T02:50:30;95958.81;;;-1.09;100.00
41686;BME280;27370;42.764;23.432;2023-01-26T02:52:56;95960.16;;;-1.03;100.00
41686;BME280;27370;42.764;23.432;2023-01-26T02:55:22;95962.28;;;-0.96;100.00
41686;BME280;27370;42.764;23.432;2023-01-26T02:57:51;95942.59;;;-0.74;100.00
41686;BME280;27370;42.764;23.432;2023-01-26T03:00:22;95941.91;;;-0.83;100.00
41686;BME280;27370;42.764;23.432;2023-01-26T03:02:52;95949.00;;;-0.96;100.00
41686;BME280;27370;42.764;23.432;2023-01-26T03:05:18;95954.59;;;-0.89;100.00
41686;BME280;27370;42.764;23.432;2023-01-26T03:07:44;95931.38;;;-1.01;100.00
41686;BME280;27370;42.764;23.432;2023-01-26T03:10:10;95930.47;;;-0.84;100.00
41686;BME280;27370;42.764;23.432;2023-01-26T03:12:36;95936.06;;;-0.77;100.00
41686;BME280;27370;42.764;23.432;2023-01-26T03:15:02;95937.72;;;-0.72;100.00
41686;BME280;27370;42.764;23.432;2023-01-26T03:17:46;95925.88;;;-0.96;100.00
41686;BME280;27370;42.764;23.432;2023-01-26T03:20:12;95928.66;;;-0.92;100.00
41686;BME280;27370;42.764;23.432;2023-01-26T03:22:56;95931.38;;;-1.01;100.00
41686;BME280;27370;42.764;23.432;2023-01-26T03:25:41;95926.19;;;-0.97;100.00
41686;BME280;27370;42.764;23.432;2023-01-26T03:28:28;95917.78;;;-0.99;100.00
41686;BME280;27370;42.764;23.432;2023-01-26T03:30:55;95916.41;;;-1.05;100.00
41686;BME280;27370;42.764;23.432;2023-01-26T03:33:22;95917.09;;;-1.17;100.00
41686;BME280;27370;42.764;23.432;2023-01-26T03:35:52;95908.13;;;-1.04;100.00
41686;BME280;27370;42.764;23.432;2023-01-26T03:38:18;95911.47;;;-0.95;100.00
41686;BME280;27370;42.764;23.432;2023-01-26T03:40:47;95911.00;;;-1.17;100.00
41686;BME280;27370;42.764;23.432;2023-01-26T03:43:31;95900.91;;;-1.03;100.00
41686;BME280;27370;42.764;23.432;2023-01-26T03:46:15;95902.94;;;-1.00;100.00
41686;BME280;27370;42.764;23.432;2023-01-26T03:49:00;95904.16;;;-1.18;100.00
41686;BME280;27370;42.764;23.432;2023-01-26T03:51:46;95886.59;;;-1.32;100.00
41686;BME280;27370;42.764;23.432;2023-01-26T03:54:30;95893.53;;;-1.18;100.00
41686;BME280;27370;42.764;23.432;2023-01-26T03:57:14;95880.69;;;-1.16;100.00
41686;BME280;27370;42.764;23.432;2023-01-26T03:59:40;95887.84;;;-1.08;100.00
41686;BME280;27370;42.764;23.432;2023-01-26T04:02:10;95890.41;;;-1.00;100.00
41686;BME280;27370;42.764;23.432;2023-01-26T04:04:55;95882.00;;;-1.23;100.00
41686;BME280;27370;42.764;23.432;2023-01-26T04:07:43;95878.22;;;-1.01;100.00
41686;BME280;27370;42.764;23.432;2023-01-26T04:10:27;95876.88;;;-1.07;100.00
41686;BME280;27370;42.764;23.432;2023-01-26T04:12:53;95874.47;;;-1.00;100.00
41686;BME280;27370;42.764;23.432;2023-01-26T04:15:40;95872.06;;;-0.93;100.00
41686;BME280;27370;42.764;23.432;2023-01-26T04:18:25;95858.31;;;-1.15;100.00
41686;BME280;27370;42.764;23.432;2023-01-26T04:21:09;95865.94;;;-1.05;100.00
41686;BME280;27370;42.764;23.432;2023-01-26T04:23:55;95855.88;;;-1.00;100.00
41686;BME280;27370;42.764;23.432;2023-01-26T04:26:27;95853.16;;;-1.12;100.00
41686;BME280;27370;42.764;23.432;2023-01-26T04:29:00;95835.59;;;-1.04;100.00
41686;BME280;27370;42.764;23.432;2023-01-26T04:31:26;95836.03;;;-1.02;100.00
41686;BME280;27370;42.764;23.432;2023-01-26T04:33:52;95836.63;;;-1.17;100.00
41686;BME280;27370;42.764;23.432;2023-01-26T04:36:18;95837.69;;;-1.10;100.00
41686;BME280;27370;42.764;23.432;2023-01-26T04:38:46;95834.69;;;-1.08;100.00
41686;BME280;27370;42.764;23.432;2023-01-26T04:41:15;95846.16;;;-1.16;100.00
41686;BME280;27370;42.764;23.432;2023-01-26T04:43:45;95843.34;;;-0.99;100.00
41686;BME280;27370;42.764;23.432;2023-01-26T04:46:11;95843.22;;;-1.03;100.00
41686;BME280;27370;42.764;23.432;2023-01-26T04:48:39;95843.03;;;-0.98;100.00
41686;BME280;27370;42.764;23.432;2023-01-26T04:51:08;95854.56;;;-1.14;100.00
41686;BME280;27370;42.764;23.432;2023-01-26T04:53:36;95850.09;;;-1.02;100.00
41686;BME280;27370;42.764;23.432;2023-01-26T04:56:01;95828.31;;;-1.16;100.00
41686;BME280;27370;42.764;23.432;2023-01-26T04:58:28;95839.84;;;-0.91;100.00
41686;BME280;27370;42.764;23.432;2023-01-26T05:00:56;95826.88;;;-0.93;100.00
41686;BME280;27370;42.764;23.432;2023-01-26T05:03:23;95832.16;;;-1.05;100.00
41686;BME280;27370;42.764;23.432;2023-01-26T05:05:51;95844.25;;;-0.95;100.00
41686;BME280;27370;42.764;23.432;2023-01-26T05:08:19;95847.69;;;-0.95;100.00
41686;BME280;27370;42.764;23.432;2023-01-26T05:10:45;95840.34;;;-1.10;100.00
41686;BME280;27370;42.764;23.432;2023-01-26T05:13:23;95829.97;;;-1.24;100.00
41686;BME280;27370;42.764;23.432;2023-01-26T05:16:07;95841.44;;;-1.11;100.00
41686;BME280;27370;42.764;23.432;2023-01-26T05:18:53;95828.31;;;-1.16;100.00
41686;BME280;27370;42.764;23.432;2023-01-26T05:21:45;95836.94;;;-1.19;100.00
41686;BME280;27370;42.764;23.432;2023-01-26T05:24:11;95817.41;;;-1.35;100.00
41686;BME280;27370;42.764;23.432;2023-01-26T05:26:55;95835.53;;;-1.16;100.00
41686;BME280;27370;42.764;23.432;2023-01-26T05:29:41;95824.25;;;-1.13;100.00
41686;BME280;27370;42.764;23.432;2023-01-26T05:32:06;95839.22;;;-0.88;100.00
41686;BME280;27370;42.764;23.432;2023-01-26T05:34:32;95822.50;;;-1.09;100.00
41686;BME280;27370;42.764;23.432;2023-01-26T05:36:57;95809.00;;;-1.04;100.00
41686;BME280;27370;42.764;23.432;2023-01-26T05:39:23;95820.41;;;-1.04;100.00
41686;BME280;27370;42.764;23.432;2023-01-26T05:41:49;95811.69;;;-0.92;100.00
41686;BME280;27370;42.764;23.432;2023-01-26T05:44:37;95819.72;;;-0.80;100.00
41686;BME280;27370;42.764;23.432;2023-01-26T05:47:09;95819.84;;;-0.76;100.00
41686;BME280;27370;42.764;23.432;2023-01-26T05:49:34;95816.31;;;-0.80;100.00
41686;BME280;27370;42.764;23.432;2023-01-26T05:52:11;95806.09;;;-0.78;100.00
41686;BME280;27370;42.764;23.432;2023-01-26T05:54:39;95825.06;;;-0.80;100.00
41686;BME280;27370;42.764;23.432;2023-01-26T05:57:05;95833.47;;;-0.78;100.00
41686;BME280;27370;42.764;23.432;2023-01-26T05:59:34;95828.94;;;-0.77;100.00
41686;BME280;27370;42.764;23.432;2023-01-26T06:02:01;95824.78;;;-0.54;100.00
41686;BME280;27370;42.764;23.432;2023-01-26T06:04:26;95829.31;;;-0.54;100.00
41686;BME280;27370;42.764;23.432;2023-01-26T06:06:57;95824.06;;;-0.75;100.00
41686;BME280;27370;42.764;23.432;2023-01-26T06:09:27;95835.91;;;-0.73;100.00
41686;BME280;27370;42.764;23.432;2023-01-26T06:12:25;95822.00;;;-0.57;100.00
41686;BME280;27370;42.764;23.432;2023-01-26T06:14:58;95827.00;;;-0.56;100.00
41686;BME280;27370;42.764;23.432;2023-01-26T06:17:44;95829.75;;;-0.65;100.00
41686;BME280;27370;42.764;23.432;2023-01-26T06:20:12;95820.91;;;-0.56;100.00
41686;BME280;27370;42.764;23.432;2023-01-26T06:22:41;95813.47;;;-0.63;100.00
41686;BME280;27370;42.764;23.432;2023-01-26T06:25:07;95811.38;;;-0.57;100.00
41686;BME280;27370;42.764;23.432;2023-01-26T06:27:33;95809.25;;;-0.64;100.00
41686;BME280;27370;42.764;23.432;2023-01-26T06:30:04;95809.94;;;-0.55;100.00
41686;BME280;27370;42.764;23.432;2023-01-26T06:32:30;95801.63;;;-0.53;100.00
41686;BME280;27370;42.764;23.432;2023-01-26T06:34:57;95797.84;;;-0.52;100.00
41686;BME280;27370;42.764;23.432;2023-01-26T06:37:24;95800.63;;;-0.49;100.00
41686;BME280;27370;42.764;23.432;2023-01-26T06:39:50;95799.88;;;-0.37;100.00
41686;BME280;27370;42.764;23.432;2023-01-26T06:42:16;95779.78;;;-0.47;100.00
41686;BME280;27370;42.764;23.432;2023-01-26T06:44:42;95793.91;;;-0.34;100.00
41686;BME280;27370;42.764;23.432;2023-01-26T06:47:07;95786.69;;;-0.34;100.00
41686;BME280;27370;42.764;23.432;2023-01-26T06:49:33;95784.59;;;-0.40;100.00
41686;BME280;27370;42.764;23.432;2023-01-26T06:52:18;95791.91;;;-0.25;100.00
41686;BME280;27370;42.764;23.432;2023-01-26T06:54:49;95793.00;;;-0.38;100.00
41686;BME280;27370;42.764;23.432;2023-01-26T06:57:32;95778.06;;;-0.43;100.00
41686;BME280;27370;42.764;23.432;2023-01-26T07:00:00;95788.09;;;-0.48;100.00
41686;BME280;27370;42.764;23.432;2023-01-26T07:02:46;95776.34;;;-0.47;100.00
41686;BME280;27370;42.764;23.432;2023-01-26T07:05:11;95782.94;;;-0.45;100.00
41686;BME280;27370;42.764;23.432;2023-01-26T07:07:37;95788.25;;;-0.33;100.00
41686;BME280;27370;42.764;23.432;2023-01-26T07:10:03;95772.28;;;-0.45;100.00
41686;BME280;27370;42.764;23.432;2023-01-26T07:12:42;95774.50;;;-0.35;100.00
41686;BME280;27370;42.764;23.432;2023-01-26T07:15:09;95776.38;;;-0.23;100.00
41686;BME280;27370;42.764;23.432;2023-01-26T07:17:37;95758.09;;;-0.37;100.00
41686;BME280;27370;42.764;23.432;2023-01-26T07:20:03;95768.97;;;-0.29;100.00
41686;BME280;27370;42.764;23.432;2023-01-26T07:22:28;95759.09;;;-0.41;100.00
41686;BME280;27370;42.764;23.432;2023-01-26T07:24:54;95774.38;;;-0.26;100.00
41686;BME280;27370;42.764;23.432;2023-01-26T07:27:19;95769.75;;;-0.41;100.00
41686;BME280;27370;42.764;23.432;2023-01-26T07:29:45;95773.06;;;-0.44;100.00
41686;BME280;27370;42.764;23.432;2023-01-26T07:32:11;95770.50;;;-0.41;100.00
41686;BME280;27370;42.764;23.432;2023-01-26T07:34:36;95760.41;;;-0.23;100.00
41686;BME280;27370;42.764;23.432;2023-01-26T07:37:02;95766.31;;;-0.17;100.00
41686;BME280;27370;42.764;23.432;2023-01-26T07:39:30;95770.53;;;-0.16;100.00
41686;BME280;27370;42.764;23.432;2023-01-26T07:41:55;95749.31;;;-0.25;100.00
41686;BME280;27370;42.764;23.432;2023-01-26T07:44:39;95753.88;;;-0.25;100.00
41686;BME280;27370;42.764;23.432;2023-01-26T07:47:05;95749.31;;;-0.62;100.00
41686;BME280;27370;42.764;23.432;2023-01-26T07:49:31;95748.91;;;-0.39;100.00
41686;BME280;27370;42.764;23.432;2023-01-26T07:51:56;95730.28;;;-0.39;100.00
41686;BME280;27370;42.764;23.432;2023-01-26T07:54:22;95736.94;;;-0.45;100.00
41686;BME280;27370;42.764;23.432;2023-01-26T07:56:51;95749.13;;;-0.44;100.00
41686;BME280;27370;42.764;23.432;2023-01-26T07:59:17;95755.31;;;-0.52;100.00
41686;BME280;27370;42.764;23.432;2023-01-26T08:01:42;95756.19;;;-0.48;100.00
41686;BME280;27370;42.764;23.432;2023-01-26T08:04:08;95748.78;;;-0.55;100.00
41686;BME280;27370;42.764;23.432;2023-01-26T08:06:33;95750.66;;;-0.68;100.00
41686;BME280;27370;42.764;23.432;2023-01-26T08:08:59;95760.28;;;-0.63;100.00
41686;BME280;27370;42.764;23.432;2023-01-26T08:11:24;95740.69;;;-0.58;100.00
41686;BME280;27370;42.764;23.432;2023-01-26T08:13:52;95734.59;;;-0.35;100.00
41686;BME280;27370;42.764;23.432;2023-01-26T08:16:19;95735.16;;;-0.29;100.00
41686;BME280;27370;42.764;23.432;2023-01-26T08:18:45;95736.94;;;-0.45;100.00
41686;BME280;27370;42.764;23.432;2023-01-26T08:21:12;95739.13;;;-0.47;100.00
41686;BME280;27370;42.764;23.432;2023-01-26T08:23:38;95735.38;;;-0.58;100.00
41686;BME280;27370;42.764;23.432;2023-01-26T08:26:07;95723.63;;;-0.33;100.00
41686;BME280;27370;42.764;23.432;2023-01-26T08:28:33;95732.94;;;-0.27;100.00
41686;BME280;27370;42.764;23.432;2023-01-26T08:31:08;95731.16;;;-0.35;100.00
41686;BME280;27370;42.764;23.432;2023-01-26T08:33:39;95725.19;;;-0.20;100.00
41686;BME280;27370;42.764;23.432;2023-01-26T08:36:07;95722.75;;;-0.37;100.00
41686;BME280;27370;42.764;23.432;2023-01-26T08:38:33;95725.06;;;-0.23;100.00
41686;BME280;27370;42.764;23.432;2023-01-26T08:40:59;95710.66;;;-0.22;100.00
41686;BME280;27370;42.764;23.432;2023-01-26T08:43:26;95723.59;;;-0.09;100.00
41686;BME280;27370;42.764;23.432;2023-01-26T08:45:51;95723.41;;;-0.28;100.00
41686;BME280;27370;42.764;23.432;2023-01-26T08:48:17;95706.09;;;-0.46;100.00
41686;BME280;27370;42.764;23.432;2023-01-26T08:50:43;95697.47;;;-0.31;100.00
41686;BME280;27370;42.764;23.432;2023-01-26T08:53:09;95707.06;;;0.10;100.00
41686;BME280;27370;42.764;23.432;2023-01-26T08:55:34;95705.94;;;0.11;100.00
41686;BME280;27370;42.764;23.432;2023-01-26T08:58:00;95714.94;;;-0.06;100.00
41686;BME280;27370;42.764;23.432;2023-01-26T09:00:26;95717.38;;;-0.01;100.00
41686;BME280;27370;42.764;23.432;2023-01-26T09:03:02;95724.94;;;-0.15;100.00
41686;BME280;27370;42.764;23.432;2023-01-26T09:05:32;95718.19;;;0.00;100.00
41686;BME280;27370;42.764;23.432;2023-01-26T09:07:58;95726.13;;;0.12;100.00
41686;BME280;27370;42.764;23.432;2023-01-26T09:10:24;95723.00;;;0.22;100.00
41686;BME280;27370;42.764;23.432;2023-01-26T09:12:49;95706.72;;;0.12;100.00
41686;BME280;27370;42.764;23.432;2023-01-26T09:15:15;95718.56;;;0.26;100.00
41686;BME280;27370;42.764;23.432;2023-01-26T09:17:41;95715.91;;;0.26;100.00
41686;BME280;27370;42.764;23.432;2023-01-26T09:20:08;95706.31;;;0.38;100.00
41686;BME280;27370;42.764;23.432;2023-01-26T09:22:34;95702.72;;;0.18;100.00
41686;BME280;27370;42.764;23.432;2023-01-26T09:25:01;95699.97;;;0.42;100.00
41686;BME280;27370;42.764;23.432;2023-01-26T09:27:27;95701.75;;;0.38;100.00
41686;BME280;27370;42.764;23.432;2023-01-26T09:29:53;95698.41;;;0.41;100.00
41686;BME280;27370;42.764;23.432;2023-01-26T09:32:20;95698.84;;;0.43;100.00
41686;BME280;27370;42.764;23.432;2023-01-26T09:34:46;95683.56;;;0.40;100.00
41686;BME280;27370;42.764;23.432;2023-01-26T09:37:12;95678.19;;;0.24;100.00
41686;BME280;27370;42.764;23.432;2023-01-26T09:39:37;95666.31;;;0.22;100.00
41686;BME280;27370;42.764;23.432;2023-01-26T09:42:20;95672.53;;;0.14;100.00
41686;BME280;27370;42.764;23.432;2023-01-26T09:47:52;95665.06;;;-0.09;100.00
41686;BME280;27370;42.764;23.432;2023-01-26T09:50:22;95673.50;;;-0.19;100.00
41686;BME280;27370;42.764;23.432;2023-01-26T09:52:58;95679.16;;;-0.20;100.00
41686;BME280;27370;42.764;23.432;2023-01-26T09:55:25;95667.28;;;-0.11;100.00
41686;BME280;27370;42.764;23.432;2023-01-26T10:08:15;95659.44;;;0.21;100.00
41686;BME280;27370;42.764;23.432;2023-01-26T10:10:51;95659.88;;;0.23;100.00
41686;BME280;27370;42.764;23.432;2023-01-26T10:13:17;95672.97;;;0.16;100.00
41686;BME280;27370;42.764;23.432;2023-01-26T10:15:47;95669.22;;;0.17;100.00
41686;BME280;27370;42.764;23.432;2023-01-26T10:18:27;95650.72;;;0.36;100.00
41686;BME280;27370;42.764;23.432;2023-01-26T10:20:55;95646.47;;;0.47;100.00
41686;BME280;27370;42.764;23.432;2023-01-26T10:23:27;95655.19;;;0.32;100.00
41686;BME280;27370;42.764;23.432;2023-01-26T10:25:57;95647.78;;;0.25;100.00
41686;BME280;27370;42.764;23.432;2023-01-26T10:28:28;95627.97;;;0.11;100.00
41686;BME280;27370;42.764;23.432;2023-01-26T10:30:54;95613.34;;;0.05;100.00
41686;BME280;27370;42.764;23.432;2023-01-26T10:33:32;95612.34;;;-0.03;100.00
41686;BME280;27370;42.764;23.432;2023-01-26T10:36:00;95588.13;;;-0.14;100.00
41686;BME280;27370;42.764;23.432;2023-01-26T10:46:38;95582.97;;;0.06;100.00
41686;BME280;27370;42.764;23.432;2023-01-26T10:51:34;95551.56;;;-0.01;100.00
41686;BME280;27370;42.764;23.432;2023-01-26T10:54:19;95554.63;;;0.13;100.00
41686;BME280;27370;42.764;23.432;2023-01-26T10:56:52;95550.81;;;-0.02;100.00
41686;BME280;27370;42.764;23.432;2023-01-26T11:04:36;95529.06;;;-0.04;100.00
41686;BME280;27370;42.764;23.432;2023-01-26T11:09:45;95509.16;;;-0.10;100.00
41686;BME280;27370;42.764;23.432;2023-01-26T11:12:17;95497.78;;;0.06;100.00
41686;BME280;27370;42.764;23.432;2023-01-26T11:14:59;95494.34;;;0.21;100.00
41686;BME280;27370;42.764;23.432;2023-01-26T11:17:32;95504.94;;;0.33;100.00
41686;BME280;27370;42.764;23.432;2023-01-26T11:23:03;95499.34;;;0.38;100.00
41686;BME280;27370;42.764;23.432;2023-01-26T11:25:49;95502.88;;;0.26;100.00
41686;BME280;27370;42.764;23.432;2023-01-26T11:34:05;95469.19;;;0.18;100.00
41686;BME280;27370;42.764;23.432;2023-01-26T11:36:44;95462.19;;;-0.18;100.00
41686;BME280;27370;42.764;23.432;2023-01-26T11:39:31;95466.50;;;-0.13;100.00
41686;BME280;27370;42.764;23.432;2023-01-26T11:42:12;95462.53;;;-0.04;100.00
41686;BME280;27370;42.764;23.432;2023-01-26T11:48:05;95457.59;;;0.11;100.00
41686;BME280;27370;42.764;23.432;2023-01-26T11:51:03;95444.88;;;0.20;100.00
41686;BME280;27370;42.764;23.432;2023-01-26T11:54:18;95441.19;;;0.40;100.00
41686;BME280;27370;42.764;23.432;2023-01-26T11:57:03;95456.66;;;0.35;100.00
41686;BME280;27370;42.764;23.432;2023-01-26T11:59:35;95452.78;;;0.32;100.00
41686;BME280;27370;42.764;23.432;2023-01-26T12:02:10;95453.06;;;0.27;100.00
41686;BME280;27370;42.764;23.432;2023-01-26T12:04:44;95443.00;;;0.36;100.00
41686;BME280;27370;42.764;23.432;2023-01-26T12:07:12;95453.38;;;0.57;100.00
41686;BME280;27370;42.764;23.432;2023-01-26T12:09:44;95441.25;;;0.59;100.00
41686;BME280;27370;42.764;23.432;2023-01-26T12:15:05;95445.81;;;0.59;100.00
41686;BME280;27370;42.764;23.432;2023-01-26T12:20:51;95431.84;;;0.46;100.00
41686;BME280;27370;42.764;23.432;2023-01-26T12:23:26;95426.47;;;0.62;100.00
41686;BME280;27370;42.764;23.432;2023-01-26T12:26:08;95404.66;;;0.56;100.00
41686;BME280;27370;42.764;23.432;2023-01-26T12:28:43;95408.63;;;0.47;100.00
41686;BME280;27370;42.764;23.432;2023-01-26T12:33:43;95399.03;;;0.11;100.00
41686;BME280;27370;42.764;23.432;2023-01-26T12:37:17;95397.91;;;0.12;100.00
41686;BME280;27370;42.764;23.432;2023-01-26T12:50:11;95363.84;;;0.02;100.00
41686;BME280;27370;42.764;23.432;2023-01-26T12:55:29;95375.75;;;-0.08;100.00
41686;BME280;27370;42.764;23.432;2023-01-26T12:58:00;95367.94;;;-0.01;100.00
41686;BME280;27370;42.764;23.432;2023-01-26T13:00:34;95366.66;;;0.24;100.00
41686;BME280;27370;42.764;23.432;2023-01-26T13:03:16;95357.00;;;0.20;100.00
41686;BME280;27370;42.764;23.432;2023-01-26T13:11:01;95342.34;;;-0.06;100.00
41686;BME280;27370;42.764;23.432;2023-01-26T13:13:54;95362.88;;;0.10;100.00
41686;BME280;27370;42.764;23.432;2023-01-26T13:34:23;95350.06;;;-0.01;100.00
41686;BME280;27370;42.764;23.432;2023-01-26T13:36:51;95346.47;;;-0.24;100.00
41686;BME280;27370;42.764;23.432;2023-01-26T13:39:37;95336.50;;;-0.27;100.00
41686;BME280;27370;42.764;23.432;2023-01-26T13:42:26;95337.72;;;-0.24;100.00
41686;BME280;27370;42.764;23.432;2023-01-26T13:45:00;95342.09;;;-0.16;100.00
41686;BME280;27370;42.764;23.432;2023-01-26T13:47:40;95325.47;;;-0.13;100.00
41686;BME280;27370;42.764;23.432;2023-01-26T13:50:40;95332.38;;;-0.24;100.00
41686;BME280;27370;42.764;23.432;2023-01-26T13:53:36;95334.97;;;-0.28;100.00
41686;BME280;27370;42.764;23.432;2023-01-26T13:56:16;95322.97;;;-0.22;100.00
41686;BME280;27370;42.764;23.432;2023-01-26T13:58:43;95326.28;;;-0.56;100.00
41686;BME280;27370;42.764;23.432;2023-01-26T14:01:11;95333.53;;;-0.41;100.00
41686;BME280;27370;42.764;23.432;2023-01-26T14:03:38;95338.25;;;-0.35;100.00
41686;BME280;27370;42.764;23.432;2023-01-26T14:06:08;95317.97;;;-0.55;100.00
41686;BME280;27370;42.764;23.432;2023-01-26T14:08:35;95315.56;;;-0.60;100.00
41686;BME280;27370;42.764;23.432;2023-01-26T14:11:03;95307.50;;;-0.64;100.00
41686;BME280;27370;42.764;23.432;2023-01-26T14:13:37;95301.75;;;-0.50;100.00
41686;BME280;27370;42.764;23.432;2023-01-26T14:16:04;95302.28;;;-0.60;100.00
41686;BME280;27370;42.764;23.432;2023-01-26T14:18:30;95303.19;;;-0.68;100.00
41686;BME280;27370;42.764;23.432;2023-01-26T14:20:58;95294.38;;;-0.56;100.00
41686;BME280;27370;42.764;23.432;2023-01-26T14:23:28;95291.28;;;-0.58;100.00
41686;BME280;27370;42.764;23.432;2023-01-26T14:26:01;95287.34;;;-0.65;100.00
41686;BME280;27370;42.764;23.432;2023-01-26T14:28:36;95290.56;;;-0.71;100.00
41686;BME280;27370;42.764;23.432;2023-01-26T14:31:14;95296.00;;;-0.68;100.00
41686;BME280;27370;42.764;23.432;2023-01-26T14:33:40;95290.69;;;-0.52;100.00
41686;BME280;27370;42.764;23.432;2023-01-26T14:36:13;95276.00;;;-0.77;100.00
41686;BME280;27370;42.764;23.432;2023-01-26T14:38:42;95291.69;;;-0.88;100.00